Aeroporto :
LOGIN :

Iscrizione | Disclaimer

   EN    FR    IT 

 










Sommario :    VFR   VFR Marginale   IFR   IFR Intensivo   IFR Molto Intensivo
Visibilità : 
Base nubi : 
>= 8 km
>= 3000ft
5 / 8 km
1000 / 3000 ft
1500m / 5 km
500 / 1000 ft
800 / 1500m
200 / 500 ft
< 800m
< 200 ft
Simboli :   Temporali  Nebbia  Neve Forte  Precipitazioni Forti  Vento > 20 kt
SIGMETs :   Varie  Temporali  Ghiacco  Turbolenza  Onda orograficha  Ceneri Vulcaniche






- Altitudine del aeroporto : 399 ft
- Codice IATA : KIV


LUKK - Chisinau Int.

ULTIMO METAR :
  • 081030Z 04010KT 310V120 CAVOK 33/16 Q1017 R09/D NOSIG

METARs OBSOLETI :
  • 081000Z 06013KT 360V080 CAVOK 31/15 Q1017 R09/CLRD// NOSIG
  • 080930Z 03013KT 010V070 CAVOK 31/16 Q1017 R09/CLRD// NOSIG
  • 080900Z 04011KT 010V070 CAVOK 32/15 Q1017 R09/D NOSIG
  • 080830Z 03011KT 350V070 CAVOK 31/16 Q1017 R09/CLRD// NOSIG
  • 080800Z 03011KT CAVOK 30/16 Q1018 R09/D NOSIG

TAF TAF LUKK
Valido dal 08 a 06 ore il 09 a 06 ore UTC


080520Z 0806/0906 04012KT CAVOK
TEMPO 0811/0814 SCT045CB
BECMG 0817/0819 01008KT



MetMap, La meteo Aeronautica in un colpo d'occhio ! - Copyright ORBIFLY Dicembre 2007 - Disclaimer

ORBIFLY MET'MAP TEAM :

Programmazione e sviluppo : Alexandra Zaïnal
Concezione : Baudouin d'Aumeries
Aiuto per la programmazione : Marc-Olivier Méhu
Supporto tecnico e logistico : Manuel Goepfert
Aiuto per la traduzione : Arnaldo La Scala

Contatto : metmap@orbifly.com




FONTI E CREDITI :

   NOAA